sensor_id;sensor_type;location;lat;lon;timestamp;P1;durP1;ratioP1;P2;durP2;ratioP2
26512;SDS011;14186;53.822;10.152;2023-12-29T00:03:11;4.77;;;1.10;;
26512;SDS011;14186;53.822;10.152;2023-12-29T00:08:11;4.65;;;1.08;;
26512;SDS011;14186;53.822;10.152;2023-12-29T00:13:11;5.25;;;1.20;;
26512;SDS011;14186;53.822;10.152;2023-12-29T00:18:13;5.38;;;1.05;;
26512;SDS011;14186;53.822;10.152;2023-12-29T00:23:13;5.25;;;0.98;;
26512;SDS011;14186;53.822;10.152;2023-12-29T00:28:13;5.43;;;1.13;;
26512;SDS011;14186;53.822;10.152;2023-12-29T00:33:15;7.13;;;1.58;;
26512;SDS011;14186;53.822;10.152;2023-12-29T00:38:15;5.45;;;1.33;;
26512;SDS011;14186;53.822;10.152;2023-12-29T00:43:16;4.32;;;1.08;;
26512;SDS011;14186;53.822;10.152;2023-12-29T00:48:17;4.75;;;0.98;;
26512;SDS011;14186;53.822;10.152;2023-12-29T00:53:17;5.80;;;1.00;;
26512;SDS011;14186;53.822;10.152;2023-12-29T00:58:18;2.35;;;1.10;;
26512;SDS011;14186;53.822;10.152;2023-12-29T01:03:19;6.93;;;1.17;;
26512;SDS011;14186;53.822;10.152;2023-12-29T01:08:20;9.93;;;1.85;;
26512;SDS011;14186;53.822;10.152;2023-12-29T01:13:20;8.77;;;1.67;;
26512;SDS011;14186;53.822;10.152;2023-12-29T01:18:21;4.78;;;1.15;;
26512;SDS011;14186;53.822;10.152;2023-12-29T01:23:21;3.83;;;1.20;;
26512;SDS011;14186;53.822;10.152;2023-12-29T01:28:22;4.30;;;1.25;;
26512;SDS011;14186;53.822;10.152;2023-12-29T01:33:23;3.63;;;1.30;;
26512;SDS011;14186;53.822;10.152;2023-12-29T01:38:24;6.20;;;1.45;;
26512;SDS011;14186;53.822;10.152;2023-12-29T01:43:24;6.30;;;1.23;;
26512;SDS011;14186;53.822;10.152;2023-12-29T01:48:26;5.18;;;1.20;;
26512;SDS011;14186;53.822;10.152;2023-12-29T01:53:26;6.53;;;1.33;;
26512;SDS011;14186;53.822;10.152;2023-12-29T01:58:26;6.45;;;1.45;;
26512;SDS011;14186;53.822;10.152;2023-12-29T02:03:28;9.82;;;1.38;;
26512;SDS011;14186;53.822;10.152;2023-12-29T02:08:28;12.60;;;2.03;;
26512;SDS011;14186;53.822;10.152;2023-12-29T02:13:29;5.65;;;1.15;;
26512;SDS011;14186;53.822;10.152;2023-12-29T02:18:30;7.35;;;1.23;;
26512;SDS011;14186;53.822;10.152;2023-12-29T02:23:33;4.90;;;1.20;;
26512;SDS011;14186;53.822;10.152;2023-12-29T02:28:34;6.60;;;1.13;;
26512;SDS011;14186;53.822;10.152;2023-12-29T02:33:40;6.90;;;1.75;;
26512;SDS011;14186;53.822;10.152;2023-12-29T02:38:40;5.65;;;1.27;;
26512;SDS011;14186;53.822;10.152;2023-12-29T02:43:42;5.30;;;0.88;;
26512;SDS011;14186;53.822;10.152;2023-12-29T02:48:42;4.78;;;1.00;;
26512;SDS011;14186;53.822;10.152;2023-12-29T02:53:42;4.78;;;1.13;;
26512;SDS011;14186;53.822;10.152;2023-12-29T02:58:44;3.47;;;1.05;;
26512;SDS011;14186;53.822;10.152;2023-12-29T03:03:44;8.00;;;0.88;;
26512;SDS011;14186;53.822;10.152;2023-12-29T03:08:44;3.30;;;0.68;;
26512;SDS011;14186;53.822;10.152;2023-12-29T03:13:46;3.97;;;0.80;;
26512;SDS011;14186;53.822;10.152;2023-12-29T03:18:46;4.22;;;0.70;;
26512;SDS011;14186;53.822;10.152;2023-12-29T03:23:47;4.40;;;0.50;;
26512;SDS011;14186;53.822;10.152;2023-12-29T03:28:48;4.40;;;0.80;;
26512;SDS011;14186;53.822;10.152;2023-12-29T03:33:48;2.67;;;0.35;;
26512;SDS011;14186;53.822;10.152;2023-12-29T03:38:48;3.28;;;0.40;;
26512;SDS011;14186;53.822;10.152;2023-12-29T03:43:50;4.20;;;0.60;;
26512;SDS011;14186;53.822;10.152;2023-12-29T03:48:50;3.67;;;1.23;;
26512;SDS011;14186;53.822;10.152;2023-12-29T03:53:51;2.53;;;0.82;;
26512;SDS011;14186;53.822;10.152;2023-12-29T03:58:52;5.47;;;0.70;;
26512;SDS011;14186;53.822;10.152;2023-12-29T04:03:52;3.13;;;0.32;;
26512;SDS011;14186;53.822;10.152;2023-12-29T04:08:53;3.45;;;0.57;;
26512;SDS011;14186;53.822;10.152;2023-12-29T04:13:54;5.50;;;0.90;;
26512;SDS011;14186;53.822;10.152;2023-12-29T04:18:54;8.48;;;0.75;;
26512;SDS011;14186;53.822;10.152;2023-12-29T04:23:55;4.50;;;1.10;;
26512;SDS011;14186;53.822;10.152;2023-12-29T04:28:56;4.82;;;0.90;;
26512;SDS011;14186;53.822;10.152;2023-12-29T04:33:56;5.13;;;0.60;;
26512;SDS011;14186;53.822;10.152;2023-12-29T04:38:57;1.20;;;0.35;;
26512;SDS011;14186;53.822;10.152;2023-12-29T04:43:58;0.35;;;0.20;;
26512;SDS011;14186;53.822;10.152;2023-12-29T04:48:58;3.95;;;0.30;;
26512;SDS011;14186;53.822;10.152;2023-12-29T04:53:58;1.40;;;0.40;;
26512;SDS011;14186;53.822;10.152;2023-12-29T04:59:00;3.53;;;0.93;;
26512;SDS011;14186;53.822;10.152;2023-12-29T05:04:00;3.80;;;0.38;;
26512;SDS011;14186;53.822;10.152;2023-12-29T05:09:01;0.63;;;0.22;;
26512;SDS011;14186;53.822;10.152;2023-12-29T05:14:03;1.20;;;0.35;;
26512;SDS011;14186;53.822;10.152;2023-12-29T05:19:03;1.75;;;0.20;;
26512;SDS011;14186;53.822;10.152;2023-12-29T05:24:03;2.15;;;0.20;;
26512;SDS011;14186;53.822;10.152;2023-12-29T05:29:05;2.15;;;0.30;;
26512;SDS011;14186;53.822;10.152;2023-12-29T05:34:05;5.45;;;0.47;;
26512;SDS011;14186;53.822;10.152;2023-12-29T05:39:05;3.15;;;0.30;;
26512;SDS011;14186;53.822;10.152;2023-12-29T05:44:07;5.32;;;0.40;;
26512;SDS011;14186;53.822;10.152;2023-12-29T05:49:08;5.15;;;0.77;;
26512;SDS011;14186;53.822;10.152;2023-12-29T05:54:08;3.92;;;0.45;;
26512;SDS011;14186;53.822;10.152;2023-12-29T05:59:10;7.68;;;0.43;;
26512;SDS011;14186;53.822;10.152;2023-12-29T06:04:10;1.77;;;0.50;;
26512;SDS011;14186;53.822;10.152;2023-12-29T06:09:10;3.90;;;0.80;;
26512;SDS011;14186;53.822;10.152;2023-12-29T06:14:12;5.22;;;0.55;;
26512;SDS011;14186;53.822;10.152;2023-12-29T06:19:12;6.40;;;1.17;;
26512;SDS011;14186;53.822;10.152;2023-12-29T06:24:12;4.50;;;0.77;;
26512;SDS011;14186;53.822;10.152;2023-12-29T06:29:14;3.72;;;0.63;;
26512;SDS011;14186;53.822;10.152;2023-12-29T06:34:14;7.18;;;0.73;;
26512;SDS011;14186;53.822;10.152;2023-12-29T06:39:14;4.10;;;0.60;;
26512;SDS011;14186;53.822;10.152;2023-12-29T06:44:16;3.85;;;0.47;;
26512;SDS011;14186;53.822;10.152;2023-12-29T06:49:16;6.90;;;0.57;;
26512;SDS011;14186;53.822;10.152;2023-12-29T06:54:17;4.63;;;0.80;;
26512;SDS011;14186;53.822;10.152;2023-12-29T06:59:18;6.03;;;0.60;;
26512;SDS011;14186;53.822;10.152;2023-12-29T07:04:19;1.83;;;0.75;;
26512;SDS011;14186;53.822;10.152;2023-12-29T07:09:19;8.65;;;1.08;;
26512;SDS011;14186;53.822;10.152;2023-12-29T07:14:20;10.23;;;1.00;;
26512;SDS011;14186;53.822;10.152;2023-12-29T07:19:21;3.67;;;0.73;;
26512;SDS011;14186;53.822;10.152;2023-12-29T07:24:21;5.93;;;1.25;;
26512;SDS011;14186;53.822;10.152;2023-12-29T07:29:22;5.35;;;0.93;;
26512;SDS011;14186;53.822;10.152;2023-12-29T07:34:23;18.60;;;1.48;;
26512;SDS011;14186;53.822;10.152;2023-12-29T07:39:23;5.95;;;1.30;;
26512;SDS011;14186;53.822;10.152;2023-12-29T07:44:24;12.10;;;1.48;;
26512;SDS011;14186;53.822;10.152;2023-12-29T07:49:25;9.73;;;1.02;;
26512;SDS011;14186;53.822;10.152;2023-12-29T07:54:25;15.63;;;1.42;;
26512;SDS011;14186;53.822;10.152;2023-12-29T07:59:26;4.85;;;0.93;;
26512;SDS011;14186;53.822;10.152;2023-12-29T08:04:27;12.65;;;1.13;;
26512;SDS011;14186;53.822;10.152;2023-12-29T08:09:27;11.55;;;1.73;;
26512;SDS011;14186;53.822;10.152;2023-12-29T08:14:28;17.15;;;1.42;;
26512;SDS011;14186;53.822;10.152;2023-12-29T08:19:29;9.55;;;2.28;;
26512;SDS011;14186;53.822;10.152;2023-12-29T08:24:29;8.95;;;1.83;;
26512;SDS011;14186;53.822;10.152;2023-12-29T08:29:30;10.05;;;1.92;;
26512;SDS011;14186;53.822;10.152;2023-12-29T08:34:31;9.43;;;1.15;;
26512;SDS011;14186;53.822;10.152;2023-12-29T08:39:31;9.63;;;1.90;;
26512;SDS011;14186;53.822;10.152;2023-12-29T08:44:33;13.43;;;1.48;;
26512;SDS011;14186;53.822;10.152;2023-12-29T08:49:33;7.80;;;1.67;;
26512;SDS011;14186;53.822;10.152;2023-12-29T08:54:33;10.15;;;2.20;;
26512;SDS011;14186;53.822;10.152;2023-12-29T08:59:35;10.52;;;1.77;;
26512;SDS011;14186;53.822;10.152;2023-12-29T09:04:35;8.10;;;1.45;;
26512;SDS011;14186;53.822;10.152;2023-12-29T09:09:35;11.15;;;1.40;;
26512;SDS011;14186;53.822;10.152;2023-12-29T09:14:37;5.65;;;1.15;;
26512;SDS011;14186;53.822;10.152;2023-12-29T09:19:37;4.40;;;0.70;;
26512;SDS011;14186;53.822;10.152;2023-12-29T09:24:37;5.97;;;0.73;;
26512;SDS011;14186;53.822;10.152;2023-12-29T09:29:39;4.20;;;0.30;;
26512;SDS011;14186;53.822;10.152;2023-12-29T09:34:39;4.20;;;0.60;;
26512;SDS011;14186;53.822;10.152;2023-12-29T09:39:39;2.90;;;0.30;;
26512;SDS011;14186;53.822;10.152;2023-12-29T09:44:41;5.10;;;0.95;;
26512;SDS011;14186;53.822;10.152;2023-12-29T09:49:42;2.20;;;0.73;;
26512;SDS011;14186;53.822;10.152;2023-12-29T09:54:43;6.68;;;0.60;;
26512;SDS011;14186;53.822;10.152;2023-12-29T09:59:45;3.83;;;0.60;;
26512;SDS011;14186;53.822;10.152;2023-12-29T10:04:48;5.17;;;0.83;;
26512;SDS011;14186;53.822;10.152;2023-12-29T10:09:49;7.88;;;1.00;;
26512;SDS011;14186;53.822;10.152;2023-12-29T10:14:54;4.88;;;0.77;;
26512;SDS011;14186;53.822;10.152;2023-12-29T10:19:58;6.65;;;0.75;;
26512;SDS011;14186;53.822;10.152;2023-12-29T10:25:02;6.20;;;0.95;;
26512;SDS011;14186;53.822;10.152;2023-12-29T10:30:05;2.10;;;0.55;;
26512;SDS011;14186;53.822;10.152;2023-12-29T10:35:09;3.00;;;0.40;;
26512;SDS011;14186;53.822;10.152;2023-12-29T10:40:11;9.70;;;0.80;;
26512;SDS011;14186;53.822;10.152;2023-12-29T10:45:17;7.38;;;1.30;;
26512;SDS011;14186;53.822;10.152;2023-12-29T10:50:18;5.95;;;0.93;;
26512;SDS011;14186;53.822;10.152;2023-12-29T10:55:18;5.82;;;1.52;;
26512;SDS011;14186;53.822;10.152;2023-12-29T11:00:19;9.27;;;1.67;;
26512;SDS011;14186;53.822;10.152;2023-12-29T11:05:29;6.70;;;0.82;;
26512;SDS011;14186;53.822;10.152;2023-12-29T11:10:29;12.32;;;1.23;;
26512;SDS011;14186;53.822;10.152;2023-12-29T11:15:31;10.93;;;1.42;;
26512;SDS011;14186;53.822;10.152;2023-12-29T11:20:32;9.55;;;1.30;;
26512;SDS011;14186;53.822;10.152;2023-12-29T11:25:34;8.45;;;1.40;;
26512;SDS011;14186;53.822;10.152;2023-12-29T11:30:36;13.65;;;1.25;;
26512;SDS011;14186;53.822;10.152;2023-12-29T11:35:37;10.98;;;1.60;;
26512;SDS011;14186;53.822;10.152;2023-12-29T11:40:41;9.65;;;0.80;;
26512;SDS011;14186;53.822;10.152;2023-12-29T11:45:43;11.60;;;1.30;;
26512;SDS011;14186;53.822;10.152;2023-12-29T11:50:43;10.02;;;0.90;;
26512;SDS011;14186;53.822;10.152;2023-12-29T11:55:43;5.40;;;0.88;;
26512;SDS011;14186;53.822;10.152;2023-12-29T12:00:45;5.28;;;0.98;;
26512;SDS011;14186;53.822;10.152;2023-12-29T12:05:46;5.70;;;1.42;;
26512;SDS011;14186;53.822;10.152;2023-12-29T12:10:47;7.78;;;1.13;;
26512;SDS011;14186;53.822;10.152;2023-12-29T12:15:48;7.53;;;1.23;;
26512;SDS011;14186;53.822;10.152;2023-12-29T12:20:50;10.10;;;1.10;;
26512;SDS011;14186;53.822;10.152;2023-12-29T12:25:50;8.73;;;0.98;;
26512;SDS011;14186;53.822;10.152;2023-12-29T12:31:05;6.25;;;1.33;;
26512;SDS011;14186;53.822;10.152;2023-12-29T12:36:06;6.53;;;1.00;;
26512;SDS011;14186;53.822;10.152;2023-12-29T12:41:09;11.38;;;1.17;;
26512;SDS011;14186;53.822;10.152;2023-12-29T12:46:11;5.13;;;1.58;;
26512;SDS011;14186;53.822;10.152;2023-12-29T12:51:11;8.48;;;1.08;;
26512;SDS011;14186;53.822;10.152;2023-12-29T12:56:12;7.65;;;1.00;;
26512;SDS011;14186;53.822;10.152;2023-12-29T13:01:14;9.23;;;1.70;;
26512;SDS011;14186;53.822;10.152;2023-12-29T13:06:14;10.88;;;1.45;;
26512;SDS011;14186;53.822;10.152;2023-12-29T13:11:18;9.87;;;1.23;;
26512;SDS011;14186;53.822;10.152;2023-12-29T13:16:20;13.82;;;1.02;;
26512;SDS011;14186;53.822;10.152;2023-12-29T13:21:28;3.97;;;0.95;;
26512;SDS011;14186;53.822;10.152;2023-12-29T13:26:28;7.30;;;0.73;;
26512;SDS011;14186;53.822;10.152;2023-12-29T13:31:30;7.97;;;1.00;;
26512;SDS011;14186;53.822;10.152;2023-12-29T13:36:34;6.25;;;0.88;;
26512;SDS011;14186;53.822;10.152;2023-12-29T13:41:36;5.40;;;1.10;;
26512;SDS011;14186;53.822;10.152;2023-12-29T13:46:38;6.50;;;1.17;;
26512;SDS011;14186;53.822;10.152;2023-12-29T13:51:39;7.00;;;1.00;;
26512;SDS011;14186;53.822;10.152;2023-12-29T13:56:39;5.90;;;1.10;;
26512;SDS011;14186;53.822;10.152;2023-12-29T14:01:51;9.35;;;0.93;;
26512;SDS011;14186;53.822;10.152;2023-12-29T14:06:54;6.22;;;1.15;;
26512;SDS011;14186;53.822;10.152;2023-12-29T14:11:55;6.20;;;0.95;;
26512;SDS011;14186;53.822;10.152;2023-12-29T14:16:56;8.57;;;1.30;;
26512;SDS011;14186;53.822;10.152;2023-12-29T14:21:58;9.00;;;1.10;;
26512;SDS011;14186;53.822;10.152;2023-12-29T14:26:58;11.55;;;1.58;;
26512;SDS011;14186;53.822;10.152;2023-12-29T14:32:00;15.70;;;1.15;;
26512;SDS011;14186;53.822;10.152;2023-12-29T14:37:00;8.13;;;1.38;;
26512;SDS011;14186;53.822;10.152;2023-12-29T14:42:00;5.15;;;0.88;;
26512;SDS011;14186;53.822;10.152;2023-12-29T14:47:02;7.90;;;1.35;;
26512;SDS011;14186;53.822;10.152;2023-12-29T14:52:02;7.55;;;1.50;;
26512;SDS011;14186;53.822;10.152;2023-12-29T14:57:03;7.70;;;1.30;;
26512;SDS011;14186;53.822;10.152;2023-12-29T15:02:05;6.05;;;0.80;;
26512;SDS011;14186;53.822;10.152;2023-12-29T15:07:05;6.35;;;1.58;;
26512;SDS011;14186;53.822;10.152;2023-12-29T15:12:05;9.57;;;1.10;;
26512;SDS011;14186;53.822;10.152;2023-12-29T15:17:07;5.70;;;1.00;;
26512;SDS011;14186;53.822;10.152;2023-12-29T15:22:07;10.35;;;1.50;;
26512;SDS011;14186;53.822;10.152;2023-12-29T15:27:07;6.10;;;1.00;;
26512;SDS011;14186;53.822;10.152;2023-12-29T15:32:09;7.43;;;0.93;;
26512;SDS011;14186;53.822;10.152;2023-12-29T15:37:09;12.05;;;1.38;;
26512;SDS011;14186;53.822;10.152;2023-12-29T15:42:09;9.77;;;2.35;;
26512;SDS011;14186;53.822;10.152;2023-12-29T15:47:11;8.15;;;1.00;;
26512;SDS011;14186;53.822;10.152;2023-12-29T15:52:11;5.57;;;0.63;;
26512;SDS011;14186;53.822;10.152;2023-12-29T15:57:12;14.80;;;2.08;;
26512;SDS011;14186;53.822;10.152;2023-12-29T16:02:13;8.82;;;1.38;;
26512;SDS011;14186;53.822;10.152;2023-12-29T16:07:13;12.45;;;1.40;;
26512;SDS011;14186;53.822;10.152;2023-12-29T16:12:14;6.57;;;1.35;;
26512;SDS011;14186;53.822;10.152;2023-12-29T16:17:15;13.07;;;2.05;;
26512;SDS011;14186;53.822;10.152;2023-12-29T16:22:15;5.18;;;0.82;;
26512;SDS011;14186;53.822;10.152;2023-12-29T16:27:16;11.30;;;1.50;;
26512;SDS011;14186;53.822;10.152;2023-12-29T16:32:20;7.90;;;1.10;;
26512;SDS011;14186;53.822;10.152;2023-12-29T16:37:21;6.00;;;0.88;;
26512;SDS011;14186;53.822;10.152;2023-12-29T16:42:21;5.03;;;1.25;;
26512;SDS011;14186;53.822;10.152;2023-12-29T16:47:23;8.20;;;1.20;;
26512;SDS011;14186;53.822;10.152;2023-12-29T16:52:23;9.57;;;1.73;;
26512;SDS011;14186;53.822;10.152;2023-12-29T16:57:23;6.55;;;1.23;;
26512;SDS011;14186;53.822;10.152;2023-12-29T17:02:25;7.32;;;1.75;;
26512;SDS011;14186;53.822;10.152;2023-12-29T17:07:25;5.72;;;1.17;;
26512;SDS011;14186;53.822;10.152;2023-12-29T17:12:25;14.88;;;1.77;;
26512;SDS011;14186;53.822;10.152;2023-12-29T17:17:27;9.13;;;1.63;;
26512;SDS011;14186;53.822;10.152;2023-12-29T17:22:27;7.40;;;1.40;;
26512;SDS011;14186;53.822;10.152;2023-12-29T17:27:27;9.55;;;1.08;;
26512;SDS011;14186;53.822;10.152;2023-12-29T17:32:29;6.97;;;1.00;;
26512;SDS011;14186;53.822;10.152;2023-12-29T17:37:29;9.30;;;1.48;;
26512;SDS011;14186;53.822;10.152;2023-12-29T17:42:29;8.35;;;1.88;;
26512;SDS011;14186;53.822;10.152;2023-12-29T17:47:31;9.80;;;1.52;;
26512;SDS011;14186;53.822;10.152;2023-12-29T17:52:31;5.55;;;0.85;;
26512;SDS011;14186;53.822;10.152;2023-12-29T17:57:31;9.32;;;1.13;;
26512;SDS011;14186;53.822;10.152;2023-12-29T18:02:33;8.75;;;1.65;;
26512;SDS011;14186;53.822;10.152;2023-12-29T18:07:33;6.68;;;1.20;;
26512;SDS011;14186;53.822;10.152;2023-12-29T18:12:33;11.10;;;1.50;;
26512;SDS011;14186;53.822;10.152;2023-12-29T18:17:35;6.38;;;1.17;;
26512;SDS011;14186;53.822;10.152;2023-12-29T18:22:35;12.07;;;1.40;;
26512;SDS011;14186;53.822;10.152;2023-12-29T18:27:37;11.80;;;1.48;;
26512;SDS011;14186;53.822;10.152;2023-12-29T18:32:38;6.15;;;1.52;;
26512;SDS011;14186;53.822;10.152;2023-12-29T18:37:39;12.25;;;1.35;;
26512;SDS011;14186;53.822;10.152;2023-12-29T18:42:39;10.57;;;1.48;;
26512;SDS011;14186;53.822;10.152;2023-12-29T18:47:40;5.65;;;0.93;;
26512;SDS011;14186;53.822;10.152;2023-12-29T18:52:41;9.02;;;1.15;;
26512;SDS011;14186;53.822;10.152;2023-12-29T18:57:41;8.55;;;0.80;;
26512;SDS011;14186;53.822;10.152;2023-12-29T19:02:42;5.22;;;1.17;;
26512;SDS011;14186;53.822;10.152;2023-12-29T19:07:44;11.98;;;1.05;;
26512;SDS011;14186;53.822;10.152;2023-12-29T19:12:45;14.10;;;1.63;;
26512;SDS011;14186;53.822;10.152;2023-12-29T19:17:47;5.80;;;0.85;;
26512;SDS011;14186;53.822;10.152;2023-12-29T19:22:47;10.85;;;0.95;;
26512;SDS011;14186;53.822;10.152;2023-12-29T19:27:47;9.00;;;1.10;;
26512;SDS011;14186;53.822;10.152;2023-12-29T19:32:48;10.15;;;1.38;;
26512;SDS011;14186;53.822;10.152;2023-12-29T19:37:49;10.10;;;1.00;;
26512;SDS011;14186;53.822;10.152;2023-12-29T19:42:49;9.80;;;1.10;;
26512;SDS011;14186;53.822;10.152;2023-12-29T19:47:51;7.90;;;1.10;;
26512;SDS011;14186;53.822;10.152;2023-12-29T19:52:51;6.93;;;1.20;;
26512;SDS011;14186;53.822;10.152;2023-12-29T19:57:51;14.32;;;1.25;;
26512;SDS011;14186;53.822;10.152;2023-12-29T20:02:53;9.82;;;1.63;;
26512;SDS011;14186;53.822;10.152;2023-12-29T20:07:53;5.53;;;1.10;;
26512;SDS011;14186;53.822;10.152;2023-12-29T20:12:53;2.10;;;0.77;;
26512;SDS011;14186;53.822;10.152;2023-12-29T20:17:55;7.72;;;1.50;;
26512;SDS011;14186;53.822;10.152;2023-12-29T20:22:56;7.93;;;0.80;;
26512;SDS011;14186;53.822;10.152;2023-12-29T20:27:56;11.38;;;1.05;;
26512;SDS011;14186;53.822;10.152;2023-12-29T20:32:57;11.55;;;1.60;;
26512;SDS011;14186;53.822;10.152;2023-12-29T20:37:58;9.52;;;1.45;;
26512;SDS011;14186;53.822;10.152;2023-12-29T20:42:59;9.70;;;1.25;;
26512;SDS011;14186;53.822;10.152;2023-12-29T20:48:00;6.22;;;1.30;;
26512;SDS011;14186;53.822;10.152;2023-12-29T20:53:01;9.60;;;0.90;;
26512;SDS011;14186;53.822;10.152;2023-12-29T20:58:01;6.13;;;0.80;;
26512;SDS011;14186;53.822;10.152;2023-12-29T21:03:03;5.95;;;0.68;;
26512;SDS011;14186;53.822;10.152;2023-12-29T21:08:03;6.80;;;1.15;;
26512;SDS011;14186;53.822;10.152;2023-12-29T21:13:04;8.30;;;1.38;;
26512;SDS011;14186;53.822;10.152;2023-12-29T21:18:05;9.75;;;0.98;;
26512;SDS011;14186;53.822;10.152;2023-12-29T21:23:05;7.68;;;1.10;;
26512;SDS011;14186;53.822;10.152;2023-12-29T21:28:06;5.75;;;0.90;;
26512;SDS011;14186;53.822;10.152;2023-12-29T21:33:07;6.72;;;0.90;;
26512;SDS011;14186;53.822;10.152;2023-12-29T21:38:07;4.45;;;0.70;;
26512;SDS011;14186;53.822;10.152;2023-12-29T21:43:08;3.13;;;0.63;;
26512;SDS011;14186;53.822;10.152;2023-12-29T21:48:09;6.97;;;0.82;;
26512;SDS011;14186;53.822;10.152;2023-12-29T21:53:10;5.60;;;1.33;;
26512;SDS011;14186;53.822;10.152;2023-12-29T21:58:10;12.45;;;1.02;;
26512;SDS011;14186;53.822;10.152;2023-12-29T22:03:12;1.15;;;0.50;;
26512;SDS011;14186;53.822;10.152;2023-12-29T22:08:12;1.33;;;0.60;;
26512;SDS011;14186;53.822;10.152;2023-12-29T22:13:12;3.97;;;0.55;;
26512;SDS011;14186;53.822;10.152;2023-12-29T22:18:14;2.35;;;0.50;;
26512;SDS011;14186;53.822;10.152;2023-12-29T22:23:14;2.45;;;0.60;;
26512;SDS011;14186;53.822;10.152;2023-12-29T22:28:14;1.35;;;0.40;;
26512;SDS011;14186;53.822;10.152;2023-12-29T22:33:16;2.35;;;0.50;;
26512;SDS011;14186;53.822;10.152;2023-12-29T22:38:16;0.82;;;0.30;;
26512;SDS011;14186;53.822;10.152;2023-12-29T22:43:16;3.33;;;0.40;;
26512;SDS011;14186;53.822;10.152;2023-12-29T22:48:17;0.95;;;0.30;;
26512;SDS011;14186;53.822;10.152;2023-12-29T22:53:18;1.13;;;0.35;;
26512;SDS011;14186;53.822;10.152;2023-12-29T22:58:18;5.20;;;0.35;;
26512;SDS011;14186;53.822;10.152;2023-12-29T23:03:20;0.70;;;0.38;;
26512;SDS011;14186;53.822;10.152;2023-12-29T23:08:20;3.40;;;0.35;;
26512;SDS011;14186;53.822;10.152;2023-12-29T23:13:21;3.90;;;0.60;;
26512;SDS011;14186;53.822;10.152;2023-12-29T23:18:22;3.70;;;0.60;;
26512;SDS011;14186;53.822;10.152;2023-12-29T23:23:22;5.90;;;0.50;;
26512;SDS011;14186;53.822;10.152;2023-12-29T23:28:22;3.88;;;0.60;;
26512;SDS011;14186;53.822;10.152;2023-12-29T23:33:24;3.83;;;0.45;;
26512;SDS011;14186;53.822;10.152;2023-12-29T23:38:24;1.17;;;0.30;;
26512;SDS011;14186;53.822;10.152;2023-12-29T23:43:24;3.35;;;0.45;;
26512;SDS011;14186;53.822;10.152;2023-12-29T23:48:26;2.63;;;0.63;;
26512;SDS011;14186;53.822;10.152;2023-12-29T23:53:26;2.58;;;0.60;;
26512;SDS011;14186;53.822;10.152;2023-12-29T23:58:27;3.72;;;0.50;;
